Terminal Aerodrome Forecast
Issued by NWS Memphis, TN

Home | Current Version | Previous Version | Text Only | Print | Product List | Glossary On
Versions: 1 2 3 4 5 6 7 8 9 10 11 12 13 14 15 16
748
FTUS44 KMEG 230531
TAFJBR
TAF
KJBR 230531Z 2306/2406 VRB03KT P6SM BKN150
     FM231500 26005KT P6SM BKN050
     FM231700 26006KT P6SM VCTS BKN050CB BKN150
     FM240200 31006KT P6SM VCSH SCT025 BKN050=

USA.gov is the U.S. government's official web portal to all federal, state and local government web resources and services.